Time;durP1;ratioP1;P1;durP2;ratioP2;P2;SDS_P1;SDS_P2;PMS_P1;PMS_P2;Temp;Humidity;BMP_temperature;BMP_pressure;BME280_temperature;BME280_humidity;BME280_pressure;Samples;Min_cycle;Max_cycle;Signal;HPM_P1;HPM_P2
2024/04/04 00:02:09;;;;;;;4.90;2.60;;;10.00;99.90;;;;;;4946732;28;20189;-61
2024/04/04 00:04:36;;;;;;;10.00;3.00;;;10.00;99.90;;;;;;4942704;29;20232;-62
2024/04/04 00:07:03;;;;;;;7.10;2.33;;;10.00;99.90;;;;;;4941457;28;20307;-62
2024/04/04 00:09:31;;;;;;;5.43;2.40;;;9.90;99.90;;;;;;4940969;28;20225;-62
2024/04/04 00:11:57;;;;;;;5.87;2.23;;;9.90;99.90;;;;;;4935672;28;20224;-61
2024/04/04 00:14:26;;;;;;;4.00;2.30;;;9.90;99.90;;;;;;4940733;28;20200;-62
2024/04/04 00:16:53;;;;;;;5.43;2.60;;;10.00;99.90;;;;;;4948657;28;20721;-61
2024/04/04 00:19:20;;;;;;;7.90;2.53;;;9.90;99.90;;;;;;4942776;28;20220;-61
2024/04/04 00:21:47;;;;;;;8.30;2.87;;;9.90;99.90;;;;;;4940749;28;20212;-61
2024/04/04 00:24:14;;;;;;;6.80;2.77;;;10.00;99.90;;;;;;4939595;28;20225;-61
2024/04/04 00:26:41;;;;;;;8.40;2.43;;;10.00;99.90;;;;;;4948261;28;20288;-61
2024/04/04 00:29:08;;;;;;;6.23;2.40;;;10.10;99.90;;;;;;4940368;28;20216;-62
2024/04/04 00:31:36;;;;;;;5.53;2.27;;;10.10;99.90;;;;;;4948870;28;20219;-62
2024/04/04 00:34:04;;;;;;;5.30;2.53;;;10.10;99.90;;;;;;4940390;29;20238;-61
2024/04/04 00:36:30;;;;;;;4.33;2.30;;;10.10;99.90;;;;;;4939971;28;20238;-61
2024/04/04 00:38:58;;;;;;;5.20;2.00;;;10.20;99.90;;;;;;4938118;28;20304;-61
2024/04/04 00:41:24;;;;;;;2.93;2.13;;;10.20;99.90;;;;;;4939032;28;20296;-61
2024/04/04 00:43:51;;;;;;;5.43;2.30;;;10.30;99.90;;;;;;4941702;28;20229;-61
2024/04/04 00:46:18;;;;;;;3.00;2.20;;;10.30;99.90;;;;;;4939112;28;20227;-60
2024/04/04 00:48:47;;;;;;;3.17;2.30;;;10.30;99.90;;;;;;4938292;28;20230;-61
2024/04/04 00:51:14;;;;;;;6.77;2.40;;;10.40;99.90;;;;;;4949906;28;20637;-61
2024/04/04 00:53:42;;;;;;;6.03;2.67;;;10.40;99.90;;;;;;4940155;28;20204;-61
2024/04/04 00:56:09;;;;;;;4.17;2.30;;;10.40;99.90;;;;;;4942609;28;20663;-60
2024/04/04 00:58:36;;;;;;;3.50;2.27;;;10.40;99.90;;;;;;4939100;28;20332;-61
2024/04/04 01:01:03;;;;;;;4.17;2.20;;;10.50;99.90;;;;;;4943029;28;20216;-61
2024/04/04 01:03:31;;;;;;;6.27;2.40;;;10.50;99.90;;;;;;4948008;28;20303;-61
2024/04/04 01:05:58;;;;;;;4.93;2.20;;;10.50;99.90;;;;;;4931524;28;20220;-61
2024/04/04 01:08:26;;;;;;;5.23;2.43;;;10.50;99.90;;;;;;4941354;28;20361;-62
2024/04/04 01:10:52;;;;;;;2.43;2.23;;;10.50;99.90;;;;;;4940834;28;20224;-61
2024/04/04 01:13:20;;;;;;;7.77;2.70;;;10.60;99.90;;;;;;4940962;28;20228;-61
2024/04/04 01:15:47;;;;;;;4.57;2.60;;;10.60;99.90;;;;;;4929624;28;20375;-61
2024/04/04 01:18:15;;;;;;;5.30;2.20;;;10.60;99.90;;;;;;4931932;28;20249;-61
2024/04/04 01:20:41;;;;;;;3.00;2.23;;;10.60;99.90;;;;;;4938743;28;20239;-60
2024/04/04 01:23:10;;;;;;;4.27;2.30;;;10.60;99.90;;;;;;4932626;28;20211;-61
2024/04/04 01:25:38;;;;;;;5.30;2.17;;;10.60;99.90;;;;;;4932758;28;20228;-62
2024/04/04 01:28:05;;;;;;;3.37;2.30;;;10.70;99.90;;;;;;4932998;28;20259;-62
2024/04/04 01:30:31;;;;;;;9.17;2.53;;;10.70;99.90;;;;;;4932040;28;20228;-61
2024/04/04 01:32:59;;;;;;;3.90;2.47;;;10.70;99.90;;;;;;4930060;28;20220;-62
2024/04/04 01:35:25;;;;;;;8.63;2.53;;;10.80;99.90;;;;;;4932739;28;20373;-61
2024/04/04 01:37:53;;;;;;;8.70;2.80;;;10.80;99.90;;;;;;4934053;28;20224;-61
2024/04/04 01:40:19;;;;;;;5.87;2.60;;;10.80;99.90;;;;;;4936437;28;20289;-61
2024/04/04 01:42:50;;;;;;;7.23;2.90;;;10.80;99.90;;;;;;4935435;28;20233;-61
2024/04/04 01:45:17;;;;;;;7.17;2.43;;;10.90;99.90;;;;;;4931473;28;20231;-62
2024/04/04 01:47:44;;;;;;;7.70;2.60;;;10.90;99.90;;;;;;4943171;28;20246;-61
2024/04/04 01:50:29;;;;;;;6.37;2.47;;;11.00;99.90;;;;;;4949478;28;20215;-61
2024/04/04 01:52:58;;;;;;;5.87;2.83;;;11.00;99.90;;;;;;4943705;28;20220;-62
2024/04/04 01:55:26;;;;;;;8.03;2.60;;;11.00;99.90;;;;;;4941320;28;20781;-62
2024/04/04 01:57:55;;;;;;;4.33;2.80;;;11.10;99.90;;;;;;4949651;28;20221;-62
2024/04/04 02:00:22;;;;;;;4.87;2.40;;;11.10;99.90;;;;;;4942060;28;20276;-61
2024/04/04 02:02:49;;;;;;;6.20;2.87;;;11.20;99.90;;;;;;4941803;28;20204;-61
2024/04/04 02:05:16;;;;;;;8.67;2.77;;;11.20;99.90;;;;;;4939150;28;20196;-61
2024/04/04 02:07:44;;;;;;;11.17;3.20;;;11.20;99.90;;;;;;4930467;29;20212;-61
2024/04/04 02:10:10;;;;;;;11.17;3.00;;;11.30;99.90;;;;;;4937350;28;20561;-62
2024/04/04 02:12:37;;;;;;;13.57;3.70;;;11.30;99.90;;;;;;4938715;28;20234;-62
2024/04/04 02:15:06;;;;;;;16.83;3.50;;;11.30;99.90;;;;;;4942044;28;20223;-62
2024/04/04 02:17:34;;;;;;;13.00;3.47;;;11.30;99.90;;;;;;4936874;28;20250;-61
2024/04/04 02:20:00;;;;;;;9.20;3.23;;;11.30;99.90;;;;;;4931882;28;20216;-62
2024/04/04 02:22:28;;;;;;;11.57;3.13;;;11.40;99.90;;;;;;4942119;28;20389;-62
2024/04/04 02:24:54;;;;;;;17.10;3.70;;;11.40;99.90;;;;;;4944337;28;20220;-62
2024/04/04 02:27:21;;;;;;;13.50;3.30;;;11.40;99.90;;;;;;4949096;28;20215;-61
2024/04/04 02:29:48;;;;;;;11.03;3.80;;;11.40;99.90;;;;;;4932676;28;20274;-62
2024/04/04 02:32:17;;;;;;;19.80;3.70;;;11.50;99.90;;;;;;4946858;28;20192;-62
2024/04/04 02:34:43;;;;;;;13.60;3.63;;;11.50;99.90;;;;;;4938816;28;20236;-61
2024/04/04 02:37:10;;;;;;;15.17;3.93;;;11.60;99.90;;;;;;4940020;28;20259;-61
2024/04/04 02:39:37;;;;;;;15.23;3.87;;;11.60;99.90;;;;;;4941395;28;20226;-61
2024/04/04 02:42:05;;;;;;;14.43;4.13;;;11.50;99.90;;;;;;4943025;28;20228;-61
2024/04/04 02:44:33;;;;;;;13.67;3.70;;;11.50;99.90;;;;;;4942912;28;20199;-61
2024/04/04 02:47:01;;;;;;;20.27;3.87;;;11.50;99.90;;;;;;4942018;28;20278;-61
2024/04/04 02:49:29;;;;;;;11.53;3.13;;;11.50;99.90;;;;;;4945363;28;20315;-61
2024/04/04 02:51:56;;;;;;;14.30;4.33;;;11.60;99.90;;;;;;4944411;28;20220;-61
2024/04/04 02:54:23;;;;;;;24.87;4.43;;;11.60;99.90;;;;;;4943125;28;20274;-62
2024/04/04 02:56:50;;;;;;;13.77;4.53;;;11.60;99.90;;;;;;4940697;28;20203;-61
2024/04/04 02:59:16;;;;;;;16.97;4.80;;;11.60;99.90;;;;;;4942235;28;20195;-61
2024/04/04 03:01:44;;;;;;;17.47;4.00;;;11.60;99.90;;;;;;4946172;28;20825;-61
2024/04/04 03:04:10;;;;;;;22.03;4.33;;;11.60;99.90;;;;;;4940579;28;20299;-62
2024/04/04 03:06:39;;;;;;;23.03;4.10;;;11.60;99.90;;;;;;4941655;28;20251;-62
2024/04/04 03:09:08;;;;;;;12.43;3.47;;;11.70;99.90;;;;;;4939555;28;20299;-61
2024/04/04 03:11:36;;;;;;;20.30;3.97;;;11.70;99.90;;;;;;4942617;28;20226;-60
2024/04/04 03:14:03;;;;;;;17.03;3.93;;;11.60;99.90;;;;;;4937838;28;20192;-62
2024/04/04 03:16:32;;;;;;;15.40;3.50;;;11.60;99.90;;;;;;4937801;28;20219;-62
2024/04/04 03:18:58;;;;;;;19.00;4.20;;;11.60;99.90;;;;;;4940144;28;20222;-62
2024/04/04 03:21:25;;;;;;;16.90;4.13;;;11.70;99.90;;;;;;4938829;28;20268;-61
2024/04/04 03:23:53;;;;;;;15.90;4.37;;;11.70;99.90;;;;;;4939450;28;20196;-61
2024/04/04 03:26:20;;;;;;;19.43;4.30;;;11.70;99.90;;;;;;4926173;28;20204;-61
2024/04/04 03:28:47;;;;;;;20.63;4.60;;;11.70;99.90;;;;;;4938737;28;20224;-61
2024/04/04 03:31:14;;;;;;;26.63;5.00;;;11.70;99.90;;;;;;4941379;28;20224;-61
2024/04/04 03:33:41;;;;;;;30.40;4.40;;;11.80;99.90;;;;;;4940721;28;20821;-61
2024/04/04 03:36:08;;;;;;;21.13;4.40;;;11.80;99.90;;;;;;4940136;28;20319;-61
2024/04/04 03:38:36;;;;;;;15.80;4.70;;;11.80;99.90;;;;;;4939507;28;20205;-60
2024/04/04 03:41:05;;;;;;;13.20;4.20;;;11.80;99.90;;;;;;4941617;28;20250;-61
2024/04/04 03:43:33;;;;;;;19.37;4.37;;;11.80;99.90;;;;;;4939259;28;20641;-61
2024/04/04 03:46:02;;;;;;;16.83;3.97;;;11.80;99.90;;;;;;4939985;28;20347;-61
2024/04/04 03:48:29;;;;;;;21.00;4.80;;;11.80;99.90;;;;;;4941530;28;20718;-62
2024/04/04 03:50:56;;;;;;;18.17;4.23;;;11.80;99.90;;;;;;4944898;28;20235;-61
2024/04/04 03:53:23;;;;;;;17.03;3.73;;;11.80;99.90;;;;;;4943506;28;20218;-62
2024/04/04 03:55:50;;;;;;;16.77;3.73;;;11.80;99.90;;;;;;4937364;28;20258;-61
2024/04/04 03:58:19;;;;;;;21.00;4.03;;;11.90;99.90;;;;;;4940123;28;20235;-62
2024/04/04 04:00:45;;;;;;;15.70;4.00;;;11.80;99.90;;;;;;4940672;28;20307;-61
2024/04/04 04:03:13;;;;;;;13.33;4.13;;;11.80;99.90;;;;;;4940959;28;20848;-62
2024/04/04 04:05:40;;;;;;;15.63;4.53;;;11.80;99.90;;;;;;4922250;29;20203;-61
2024/04/04 04:08:07;;;;;;;14.13;4.10;;;11.80;99.90;;;;;;4938010;28;20196;-61
2024/04/04 04:10:34;;;;;;;17.90;3.50;;;11.80;99.90;;;;;;4938844;28;20691;-62
2024/04/04 04:13:02;;;;;;;15.87;3.10;;;11.80;99.90;;;;;;4941229;28;20227;-61
2024/04/04 04:15:30;;;;;;;10.67;3.30;;;11.80;99.90;;;;;;4942932;28;20211;-61
2024/04/04 04:17:58;;;;;;;14.03;2.97;;;11.80;99.90;;;;;;4941653;28;20235;-61
2024/04/04 04:23:10;;;;;;;8.07;2.70;;;11.90;99.90;;;;;;4946881;28;20303;-61
2024/04/04 04:25:37;;;;;;;7.97;3.00;;;11.90;99.90;;;;;;4954511;28;20226;-61
2024/04/04 04:28:05;;;;;;;13.27;3.90;;;11.90;99.90;;;;;;4943327;28;20232;-61
2024/04/04 04:30:34;;;;;;;13.43;3.63;;;11.90;99.90;;;;;;4937949;28;20786;-61
2024/04/04 04:33:01;;;;;;;12.07;3.70;;;11.90;99.90;;;;;;4939959;28;20402;-61
2024/04/04 04:35:29;;;;;;;12.13;3.60;;;11.90;99.90;;;;;;4940263;28;20326;-61
2024/04/04 04:37:55;;;;;;;11.50;3.73;;;11.80;99.90;;;;;;4940580;28;20222;-62
2024/04/04 04:40:22;;;;;;;9.93;3.80;;;11.80;99.90;;;;;;4937813;28;20223;-62
2024/04/04 04:42:49;;;;;;;17.00;4.20;;;11.80;99.90;;;;;;4938649;28;20303;-61
2024/04/04 04:45:17;;;;;;;16.83;3.90;;;11.80;99.90;;;;;;4924895;29;20613;-61
2024/04/04 04:47:45;;;;;;;14.13;4.20;;;11.80;99.90;;;;;;4932570;28;20287;-61
2024/04/04 04:50:12;;;;;;;14.10;3.60;;;11.80;99.90;;;;;;4939131;28;20219;-61
2024/04/04 04:52:38;;;;;;;14.93;3.97;;;11.80;99.90;;;;;;4940088;28;20222;-61
2024/04/04 04:55:06;;;;;;;12.07;4.23;;;11.80;99.90;;;;;;4941153;28;20232;-61
2024/04/04 04:57:32;;;;;;;15.17;3.77;;;11.80;99.90;;;;;;4936649;28;20246;-61
2024/04/04 05:00:00;;;;;;;15.33;4.20;;;11.80;99.90;;;;;;4936477;28;20227;-61
2024/04/04 05:02:31;;;;;;;11.13;3.63;;;11.90;99.90;;;;;;4945413;28;20587;-61
2024/04/04 05:05:13;;;;;;;9.77;3.90;;;11.90;99.90;;;;;;4940482;28;20220;-60
2024/04/04 05:07:40;;;;;;;10.53;3.60;;;11.90;99.90;;;;;;4942853;29;20326;-61
2024/04/04 05:10:07;;;;;;;13.33;4.47;;;11.90;99.90;;;;;;4945896;28;20798;-61
2024/04/04 05:12:34;;;;;;;13.83;4.47;;;11.80;99.90;;;;;;4939442;28;20215;-61
2024/04/04 05:15:01;;;;;;;15.73;4.30;;;11.90;99.90;;;;;;4938667;28;20263;-62
2024/04/04 05:17:28;;;;;;;13.93;4.37;;;11.80;99.90;;;;;;4938622;28;20225;-61
2024/04/04 05:19:55;;;;;;;14.17;4.00;;;11.80;99.90;;;;;;4940770;28;22559;-61
2024/04/04 05:22:23;;;;;;;16.93;4.07;;;11.80;99.90;;;;;;4939255;29;20228;-61
2024/04/04 05:24:50;;;;;;;16.10;4.20;;;11.90;99.90;;;;;;4937773;28;20228;-61
2024/04/04 05:27:17;;;;;;;14.67;3.90;;;11.90;99.90;;;;;;4938342;28;20693;-61
2024/04/04 05:29:45;;;;;;;8.40;3.37;;;11.90;99.90;;;;;;4939053;28;20580;-61
2024/04/04 05:32:12;;;;;;;15.47;3.83;;;11.80;99.90;;;;;;4938825;28;20200;-61
2024/04/04 05:34:40;;;;;;;18.77;4.30;;;11.80;99.90;;;;;;4939107;28;20211;-61
2024/04/04 05:37:06;;;;;;;18.83;4.27;;;11.80;99.90;;;;;;4942899;28;20272;-61
2024/04/04 05:39:35;;;;;;;16.10;4.00;;;11.90;99.90;;;;;;4943243;28;20274;-61
2024/04/04 05:42:02;;;;;;;11.97;3.97;;;11.80;99.90;;;;;;4938312;28;20690;-61
2024/04/04 05:44:29;;;;;;;10.23;4.30;;;11.80;99.90;;;;;;4940380;28;20240;-61
2024/04/04 05:46:55;;;;;;;18.17;4.10;;;11.80;99.90;;;;;;4944066;28;20346;-61
2024/04/04 05:49:23;;;;;;;11.37;4.23;;;11.80;99.90;;;;;;4939705;28;20212;-61
2024/04/04 05:51:49;;;;;;;15.70;4.07;;;11.90;99.90;;;;;;4936490;28;20232;-61
2024/04/04 05:54:17;;;;;;;11.10;3.83;;;11.80;99.90;;;;;;4946773;28;20300;-61
2024/04/04 05:56:44;;;;;;;11.23;3.70;;;11.80;99.90;;;;;;4940214;28;20200;-62
2024/04/04 05:59:12;;;;;;;14.30;4.20;;;11.80;99.90;;;;;;4950909;28;20235;-61
2024/04/04 06:01:38;;;;;;;9.97;3.80;;;11.80;99.90;;;;;;4936361;28;20216;-61
2024/04/04 06:04:05;;;;;;;6.17;3.13;;;11.80;99.90;;;;;;4940134;28;20275;-62
2024/04/04 06:06:32;;;;;;;8.30;3.20;;;11.80;99.90;;;;;;4937115;28;20558;-61
2024/04/04 06:08:59;;;;;;;8.53;3.40;;;11.80;99.90;;;;;;4955625;28;20224;-61
2024/04/04 06:11:25;;;;;;;7.30;3.20;;;11.70;99.90;;;;;;4938019;28;20239;-62
2024/04/04 06:13:54;;;;;;;16.37;3.97;;;11.70;99.90;;;;;;4941119;28;20224;-61
2024/04/04 06:16:21;;;;;;;4.97;3.50;;;11.70;99.90;;;;;;4933122;28;20227;-61
2024/04/04 06:18:48;;;;;;;10.37;3.37;;;11.70;99.90;;;;;;4938818;28;20233;-62
2024/04/04 06:21:14;;;;;;;7.90;3.87;;;11.70;99.90;;;;;;4944758;28;20298;-61
2024/04/04 06:23:41;;;;;;;7.97;3.73;;;11.70;99.90;;;;;;4945556;28;20281;-60
2024/04/04 06:26:08;;;;;;;7.10;3.80;;;11.80;99.90;;;;;;4945568;28;20192;-62
2024/04/04 06:28:36;;;;;;;8.83;3.70;;;11.70;99.90;;;;;;4947485;28;20703;-62
2024/04/04 06:31:04;;;;;;;6.03;3.60;;;11.70;99.90;;;;;;4940591;28;20213;-62
2024/04/04 06:33:32;;;;;;;6.37;3.73;;;11.70;99.90;;;;;;4926510;29;20780;-61
2024/04/04 06:35:58;;;;;;;7.03;3.73;;;11.80;99.90;;;;;;4942632;28;20223;-62
2024/04/04 06:38:26;;;;;;;7.70;3.67;;;11.70;99.90;;;;;;4947742;28;20558;-61
2024/04/04 06:40:54;;;;;;;8.60;3.50;;;11.80;99.90;;;;;;4942267;28;20212;-66
2024/04/04 06:43:22;;;;;;;8.60;4.00;;;11.80;99.90;;;;;;4928077;28;20231;-62
2024/04/04 06:45:48;;;;;;;8.60;3.43;;;11.80;99.90;;;;;;4938711;28;20223;-62
2024/04/04 06:48:17;;;;;;;4.60;3.60;;;11.80;99.90;;;;;;4941678;28;20232;-62
2024/04/04 06:50:44;;;;;;;7.77;3.53;;;11.80;99.90;;;;;;4945042;28;20239;-62
2024/04/04 06:53:12;;;;;;;4.67;3.40;;;11.80;99.90;;;;;;4942107;28;20212;-62
2024/04/04 06:55:38;;;;;;;8.57;3.73;;;11.70;99.90;;;;;;4949630;28;20220;-62
2024/04/04 06:58:06;;;;;;;7.37;3.63;;;11.80;99.90;;;;;;4951136;28;20220;-62
2024/04/04 07:00:32;;;;;;;5.63;3.67;;;11.80;99.90;;;;;;4947648;28;20292;-62
2024/04/04 07:02:59;;;;;;;5.40;3.10;;;11.80;99.90;;;;;;4944803;28;20228;-62
2024/04/04 07:05:28;;;;;;;6.13;3.60;;;11.80;99.90;;;;;;4949429;28;20198;-62
2024/04/04 07:07:55;;;;;;;8.67;3.00;;;11.80;99.90;;;;;;4941544;28;20217;-61
2024/04/04 07:10:22;;;;;;;7.33;3.07;;;11.90;99.90;;;;;;4943526;28;22775;-62
2024/04/04 07:12:49;;;;;;;6.87;3.10;;;11.90;99.90;;;;;;4948381;28;20224;-62
2024/04/04 07:15:16;;;;;;;6.27;2.67;;;12.00;99.90;;;;;;4947570;28;20227;-62
2024/04/04 07:17:43;;;;;;;8.03;2.50;;;12.00;99.90;;;;;;4940306;28;20205;-62
2024/04/04 07:20:10;;;;;;;7.80;2.40;;;11.90;99.90;;;;;;4947537;28;20600;-62
2024/04/04 07:22:38;;;;;;;10.00;2.17;;;11.90;99.90;;;;;;4949384;28;20258;-62
2024/04/04 07:25:07;;;;;;;5.43;1.90;;;11.80;99.90;;;;;;4943911;28;20220;-62
2024/04/04 07:27:35;;;;;;;5.13;1.90;;;11.80;99.90;;;;;;4944563;28;20228;-62
2024/04/04 07:30:02;;;;;;;4.73;1.83;;;11.80;99.90;;;;;;4947461;28;20231;-62
2024/04/04 07:32:28;;;;;;;4.83;1.70;;;11.80;99.90;;;;;;4951341;28;20216;-62
2024/04/04 07:35:00;;;;;;;2.43;1.50;;;11.70;99.90;;;;;;4951096;28;20231;-62
2024/04/04 07:37:27;;;;;;;3.53;1.57;;;11.70;99.90;;;;;;4944766;28;20715;-62
2024/04/04 07:39:57;;;;;;;6.10;1.70;;;11.70;99.90;;;;;;4948689;28;20230;-62
2024/04/04 07:42:23;;;;;;;1.30;1.30;;;11.70;99.90;;;;;;4946561;28;20216;-62
2024/04/04 07:44:50;;;;;;;1.30;1.30;;;11.70;99.90;;;;;;4946202;28;20307;-62
2024/04/04 07:47:17;;;;;;;3.30;1.50;;;11.70;99.90;;;;;;4945536;28;20196;-62
2024/04/04 07:49:44;;;;;;;3.23;1.33;;;11.70;99.90;;;;;;4946521;28;20954;-62
2024/04/04 07:52:11;;;;;;;4.63;1.53;;;11.70;99.90;;;;;;4944104;28;20779;-62
2024/04/04 07:54:39;;;;;;;1.80;1.30;;;11.70;99.90;;;;;;4931083;29;20290;-62
2024/04/04 07:57:07;;;;;;;1.60;1.50;;;11.70;99.90;;;;;;4945242;28;20223;-62
2024/04/04 07:59:34;;;;;;;2.70;1.40;;;11.70;99.90;;;;;;4945966;28;20200;-62
2024/04/04 08:02:00;;;;;;;2.00;1.40;;;11.80;99.90;;;;;;4942419;28;20216;-63
2024/04/04 08:04:28;;;;;;;1.80;1.53;;;11.80;99.90;;;;;;4947354;28;20923;-62
2024/04/04 08:06:54;;;;;;;1.60;1.50;;;11.80;99.90;;;;;;4944647;28;20663;-62
2024/04/04 08:09:22;;;;;;;4.43;1.60;;;11.80;99.90;;;;;;4944088;28;20232;-63
2024/04/04 08:11:48;;;;;;;2.03;1.70;;;11.90;99.90;;;;;;4949809;28;20216;-62
2024/04/04 08:14:17;;;;;;;1.83;1.40;;;11.90;99.90;;;;;;4945129;28;20192;-62
2024/04/04 08:16:44;;;;;;;2.80;1.70;;;12.00;99.90;;;;;;4944097;28;20226;-62
2024/04/04 08:19:11;;;;;;;3.50;1.63;;;12.00;99.90;;;;;;4949177;28;20231;-62
2024/04/04 08:21:38;;;;;;;5.73;2.10;;;12.00;99.90;;;;;;4941894;28;20294;-62
2024/04/04 08:24:06;;;;;;;3.10;1.50;;;12.10;99.90;;;;;;4943151;28;20303;-62
2024/04/04 08:26:32;;;;;;;1.63;1.60;;;12.10;99.90;;;;;;4947829;28;20215;-62
2024/04/04 08:28:59;;;;;;;2.33;1.57;;;12.20;99.90;;;;;;4945411;28;20230;-62
2024/04/04 08:31:27;;;;;;;1.73;1.63;;;12.20;99.90;;;;;;4948160;28;20231;-62
2024/04/04 08:33:58;;;;;;;1.53;1.43;;;12.20;99.90;;;;;;4945523;28;20222;-62
2024/04/04 08:36:24;;;;;;;1.60;1.50;;;12.30;99.90;;;;;;4930315;29;20220;-62
2024/04/04 08:38:51;;;;;;;3.27;1.60;;;12.30;99.90;;;;;;4943530;28;20219;-62
2024/04/04 08:41:23;;;;;;;1.70;1.60;;;12.40;99.90;;;;;;4934688;28;20279;-62
2024/04/04 08:43:55;;;;;;;2.53;1.47;;;12.40;99.90;;;;;;4945759;28;20217;-62
2024/04/04 08:46:22;;;;;;;2.23;1.37;;;12.50;99.90;;;;;;4948020;28;20220;-63
2024/04/04 08:48:54;;;;;;;3.10;1.40;;;12.60;99.90;;;;;;4947449;28;20358;-62
2024/04/04 08:51:21;;;;;;;1.30;1.20;;;13.00;99.90;;;;;;4940827;28;20283;-62
2024/04/04 08:53:49;;;;;;;1.30;1.17;;;13.50;99.90;;;;;;4945464;28;20196;-63
2024/04/04 08:56:15;;;;;;;1.97;1.10;;;14.00;99.90;;;;;;4945123;28;20690;-62
2024/04/04 08:58:43;;;;;;;3.27;1.43;;;13.90;99.90;;;;;;4942224;28;20239;-62
2024/04/04 09:01:09;;;;;;;2.60;1.10;;;14.00;99.90;;;;;;4951540;28;20219;-62
2024/04/04 09:03:38;;;;;;;1.50;1.20;;;14.00;99.90;;;;;;4943679;28;20228;-62
2024/04/04 09:06:07;;;;;;;2.70;1.17;;;13.70;99.90;;;;;;4936201;28;20227;-62
2024/04/04 09:08:37;;;;;;;2.03;1.03;;;13.40;99.90;;;;;;4942137;28;20196;-62
2024/04/04 09:11:03;;;;;;;3.13;1.30;;;13.30;99.90;;;;;;4945034;28;20250;-62
2024/04/04 09:13:31;;;;;;;4.60;1.20;;;13.20;99.90;;;;;;4941686;28;20225;-62
2024/04/04 09:16:01;;;;;;;2.43;1.37;;;13.30;99.90;;;;;;4939596;28;20235;-62
2024/04/04 09:18:29;;;;;;;2.40;1.20;;;13.40;99.90;;;;;;4936980;28;20691;-61
2024/04/04 09:20:59;;;;;;;1.73;1.43;;;13.40;99.90;;;;;;4939096;28;20282;-62
2024/04/04 09:23:31;;;;;;;2.73;1.40;;;13.40;99.90;;;;;;4941347;28;20210;-62
2024/04/04 09:25:58;;;;;;;2.33;1.40;;;13.70;99.90;;;;;;4950556;28;20267;-62
2024/04/04 09:28:29;;;;;;;3.97;1.33;;;14.50;99.90;;;;;;4940783;28;20307;-62
2024/04/04 09:31:00;;;;;;;4.10;1.33;;;15.10;99.90;;;;;;4936150;28;20285;-62
2024/04/04 09:33:30;;;;;;;4.77;1.33;;;15.30;99.90;;;;;;4943846;28;20222;-62
2024/04/04 09:35:58;;;;;;;2.90;1.50;;;15.20;99.90;;;;;;4947034;28;20322;-62
2024/04/04 09:38:28;;;;;;;4.77;1.80;;;15.30;99.90;;;;;;4941731;28;20633;-62
2024/04/04 09:40:55;;;;;;;5.13;1.37;;;15.90;99.90;;;;;;4938975;28;20259;-62
2024/04/04 09:43:26;;;;;;;4.20;1.47;;;16.40;98.40;;;;;;4943647;28;22317;-61
2024/04/04 09:45:55;;;;;;;2.70;1.50;;;16.60;93.70;;;;;;4940194;28;20227;-62
2024/04/04 09:48:23;;;;;;;5.50;1.70;;;17.10;95.30;;;;;;4950090;28;20337;-62
2024/04/04 09:50:50;;;;;;;6.77;1.60;;;17.10;46.20;;;;;;4939273;28;20230;-62
2024/04/04 09:53:17;;;;;;;5.33;1.70;;;17.00;82.50;;;;;;4941817;28;20256;-61
2024/04/04 09:55:46;;;;;;;5.73;1.83;;;17.70;51.40;;;;;;4929202;28;20247;-62
2024/04/04 09:58:14;;;;;;;6.80;1.97;;;18.50;30.10;;;;;;4949619;28;20243;-62
2024/04/04 10:00:41;;;;;;;3.87;1.53;;;18.60;1.00;;;;;;4946986;28;20220;-62
2024/04/04 10:03:13;;;;;;;9.30;1.80;;;18.30;1.00;;;;;;4945116;28;20228;-62
2024/04/04 10:05:40;;;;;;;5.07;2.10;;;18.00;1.00;;;;;;4944423;28;20630;-62
2024/04/04 10:08:09;;;;;;;6.83;1.70;;;17.90;1.00;;;;;;4947933;28;20588;-62
2024/04/04 10:10:37;;;;;;;6.87;1.80;;;18.10;1.00;;;;;;4948077;28;20249;-61
2024/04/04 10:13:08;;;;;;;7.50;1.97;;;18.00;33.10;;;;;;4941759;28;20228;-62
2024/04/04 10:15:56;;;;;;;7.50;2.07;;;17.80;35.80;;;;;;4949774;28;20695;-63
2024/04/04 10:18:24;;;;;;;5.70;2.03;;;18.10;21.10;;;;;;4955076;28;20311;-62
2024/04/04 10:20:51;;;;;;;5.63;2.10;;;19.10;58.90;;;;;;4955451;28;20196;-63
2024/04/04 10:23:23;;;;;;;5.97;2.00;;;19.60;93.70;;;;;;4941457;29;20191;-62
2024/04/04 10:25:49;;;;;;;4.83;2.03;;;19.50;96.90;;;;;;4948725;28;20273;-62
2024/04/04 10:28:18;;;;;;;3.97;1.73;;;19.80;98.30;;;;;;4946556;28;20696;-62
2024/04/04 10:30:47;;;;;;;7.20;2.43;;;19.50;99.90;;;;;;4951514;28;20210;-62
2024/04/04 10:33:16;;;;;;;9.33;2.43;;;18.70;92.00;;;;;;4948424;28;20232;-61
2024/04/04 10:35:42;;;;;;;5.60;2.23;;;18.10;72.10;;;;;;4958181;28;20582;-61
2024/04/04 10:38:10;;;;;;;8.63;3.00;;;18.30;1.00;;;;;;4942460;28;20284;-61
2024/04/04 10:40:37;;;;;;;7.57;2.23;;;18.60;2.20;;;;;;4947992;28;20243;-61
2024/04/04 10:43:06;;;;;;;5.37;2.27;;;18.90;1.00;;;;;;4939089;28;20722;-62
2024/04/04 10:45:34;;;;;;;10.37;3.13;;;19.80;1.00;;;;;;4944951;28;20447;-62
2024/04/04 10:48:03;;;;;;;8.97;2.60;;;20.80;92.60;;;;;;4947204;28;20236;-62
2024/04/04 10:50:34;;;;;;;7.87;2.07;;;21.80;99.90;;;;;;4953451;28;20204;-62
2024/04/04 10:53:03;;;;;;;7.43;2.30;;;22.10;99.90;;;;;;4943406;28;20221;-62
2024/04/04 10:55:33;;;;;;;5.40;1.97;;;20.90;99.90;;;;;;4949963;28;20219;-62
2024/04/04 10:58:00;;;;;;;7.67;2.50;;;20.50;99.90;;;;;;4940497;28;20226;-62
2024/04/04 11:00:29;;;;;;;6.13;2.53;;;21.00;99.90;;;;;;4947353;28;20567;-62
2024/04/04 11:02:59;;;;;;;6.57;2.50;;;22.00;99.90;;;;;;4943865;28;20608;-62
2024/04/04 11:05:26;;;;;;;7.10;2.30;;;22.60;99.90;;;;;;4937673;28;20192;-63
2024/04/04 11:08:00;;;;;;;5.87;2.33;;;22.60;99.90;;;;;;4961885;28;20310;-62
2024/04/04 11:10:26;;;;;;;9.03;2.73;;;21.90;99.90;;;;;;4945258;28;20225;-62
2024/04/04 11:12:53;;;;;;;9.93;2.70;;;21.30;99.90;;;;;;4945276;28;20313;-63
2024/04/04 11:15:21;;;;;;;8.90;2.43;;;20.70;99.90;;;;;;4941509;28;20223;-62
2024/04/04 11:17:48;;;;;;;11.73;2.87;;;20.90;1.00;;;;;;4948697;28;20208;-62
2024/04/04 11:20:16;;;;;;;11.77;2.90;;;20.90;1.00;;;;;;4943452;28;20204;-62
2024/04/04 11:22:44;;;;;;;8.37;2.43;;;21.20;99.90;;;;;;4944054;28;20217;-62
2024/04/04 11:25:11;;;;;;;14.07;3.30;;;21.50;1.00;;;;;;4948114;28;20700;-62
2024/04/04 11:27:40;;;;;;;7.43;2.57;;;21.20;1.00;;;;;;4943701;28;20639;-61
2024/04/04 11:30:08;;;;;;;7.07;2.53;;;20.30;99.90;;;;;;4953925;28;20754;-62
2024/04/04 11:32:36;;;;;;;10.10;2.90;;;20.10;1.00;;;;;;4930506;28;20235;-62
2024/04/04 11:35:04;;;;;;;9.77;2.87;;;20.10;99.90;;;;;;4946012;28;20279;-62
2024/04/04 11:37:32;;;;;;;11.37;2.87;;;20.30;1.00;;;;;;4946522;28;20587;-62
2024/04/04 11:39:59;;;;;;;9.20;2.70;;;19.30;1.00;;;;;;4946912;28;20772;-62
2024/04/04 11:42:27;;;;;;;10.90;2.87;;;18.50;1.00;;;;;;4943793;28;20308;-61
2024/04/04 11:44:53;;;;;;;17.57;3.17;;;18.70;1.00;;;;;;4949155;28;20197;-62
2024/04/04 11:47:21;;;;;;;14.50;3.37;;;18.80;91.80;;;;;;4947298;28;20648;-62
2024/04/04 11:49:47;;;;;;;13.67;2.93;;;18.70;49.20;;;;;;4949297;28;20249;-62
2024/04/04 11:52:15;;;;;;;18.10;3.33;;;18.50;1.00;;;;;;4944476;28;20232;-61
2024/04/04 11:54:43;;;;;;;11.57;3.17;;;18.30;1.00;;;;;;4936632;28;20679;-62
2024/04/04 11:57:11;;;;;;;20.07;4.10;;;18.30;1.00;;;;;;4944979;28;20266;-62
2024/04/04 11:59:37;;;;;;;17.17;3.63;;;18.40;80.00;;;;;;4945832;28;20196;-61
2024/04/04 12:02:05;;;;;;;13.27;3.17;;;18.30;95.20;;;;;;4941030;28;20243;-61
2024/04/04 12:04:39;;;;;;;11.33;3.27;;;18.70;53.50;;;;;;4951516;28;20220;-62
2024/04/04 12:07:25;;;;;;;15.40;3.63;;;19.90;99.90;;;;;;4942549;28;20212;-61
2024/04/04 12:09:53;;;;;;;10.43;2.57;;;21.20;99.90;;;;;;4965541;28;20269;-62
2024/04/04 12:12:21;;;;;;;8.17;3.07;;;21.10;99.90;;;;;;4943595;28;20312;-61
2024/04/04 12:14:48;;;;;;;11.60;3.00;;;21.20;99.90;;;;;;4948775;28;20224;-62
2024/04/04 12:17:19;;;;;;;13.60;3.20;;;21.70;99.90;;;;;;4944260;28;20292;-61
2024/04/04 12:19:45;;;;;;;8.47;2.90;;;21.90;99.90;;;;;;4943789;28;20747;-62
2024/04/04 12:22:13;;;;;;;13.03;3.17;;;21.80;99.90;;;;;;4959960;28;20228;-62
2024/04/04 12:24:40;;;;;;;13.33;3.40;;;21.10;99.90;;;;;;4950636;28;20227;-62
2024/04/04 12:27:08;;;;;;;12.27;3.07;;;20.90;99.90;;;;;;4930909;28;20243;-62
2024/04/04 12:29:36;;;;;;;9.17;3.10;;;21.20;99.90;;;;;;4948148;28;20304;-61
2024/04/04 12:32:03;;;;;;;10.80;3.00;;;21.60;99.90;;;;;;4946367;28;20220;-62
2024/04/04 12:34:31;;;;;;;12.23;3.17;;;21.60;99.90;;;;;;4945808;28;20442;-62
2024/04/04 12:36:59;;;;;;;10.17;2.97;;;21.10;99.90;;;;;;4942519;28;20339;-63
2024/04/04 12:39:26;;;;;;;12.00;3.13;;;20.90;99.90;;;;;;4937843;28;20308;-62
2024/04/04 12:41:53;;;;;;;10.47;2.83;;;20.60;99.90;;;;;;4947194;28;20200;-62
2024/04/04 12:44:21;;;;;;;10.90;3.10;;;20.10;99.90;;;;;;4940864;28;20193;-61
2024/04/04 12:46:48;;;;;;;10.67;2.77;;;19.60;99.90;;;;;;4941878;28;20791;-62
2024/04/04 12:49:15;;;;;;;10.10;3.27;;;19.30;99.90;;;;;;4940002;28;20224;-62